Time;durP1;ratioP1;P1;durP2;ratioP2;P2;SDS_P1;SDS_P2;PMS_P1;PMS_P2;Temp;Humidity;BMP_temperature;BMP_pressure;BME280_temperature;BME280_humidity;BME280_pressure;Samples;Min_cycle;Max_cycle;Signal;HPM_P1;HPM_P2
2022/05/31 00:01:41;;;;;;;2.95;2.75;;;;;;;;;;5043247;28;20040;-32
2022/05/31 00:04:07;;;;;;;5.00;3.15;;;;;;;;;;5042640;28;20426;-30
2022/05/31 00:06:33;;;;;;;3.25;2.85;;;;;;;;;;5040046;28;20523;-30
2022/05/31 00:08:59;;;;;;;4.15;2.90;;;;;;;;;;5034135;28;20033;-31
2022/05/31 00:11:25;;;;;;;3.55;3.25;;;;;;;;;;5032748;28;20439;-31
2022/05/31 00:13:52;;;;;;;4.20;3.15;;;;;;;;;;5048337;28;20506;-34
2022/05/31 00:16:18;;;;;;;4.13;3.00;;;;;;;;;;5049711;28;20098;-31
2022/05/31 00:18:44;;;;;;;3.67;2.97;;;;;;;;;;5042322;28;20041;-33
2022/05/31 00:21:10;;;;;;;3.22;2.67;;;;;;;;;;5035878;28;20124;-31
2022/05/31 00:23:38;;;;;;;4.45;2.80;;;;;;;;;;5044058;28;20029;-31
2022/05/31 00:26:05;;;;;;;3.85;3.13;;;;;;;;;;5042826;28;20055;-33
2022/05/31 00:28:31;;;;;;;3.92;2.72;;;;;;;;;;5034778;28;20058;-31
2022/05/31 00:30:58;;;;;;;3.47;2.92;;;;;;;;;;5052748;28;20095;-30
2022/05/31 00:33:25;;;;;;;3.35;3.05;;;;;;;;;;5052288;28;20079;-31
2022/05/31 00:35:53;;;;;;;3.78;3.38;;;;;;;;;;5040910;28;20093;-32
2022/05/31 00:38:19;;;;;;;3.75;3.45;;;;;;;;;;5044292;28;20045;-32
2022/05/31 00:40:45;;;;;;;4.05;3.50;;;;;;;;;;5049290;28;20091;-31
2022/05/31 00:43:12;;;;;;;4.78;3.72;;;;;;;;;;5040646;28;20067;-32
2022/05/31 00:45:53;;;;;;;3.85;3.45;;;;;;;;;;5047363;28;20159;-32
2022/05/31 00:48:26;;;;;;;4.00;3.60;;;;;;;;;;5049664;28;20052;-32
2022/05/31 00:50:55;;;;;;;3.72;3.22;;;;;;;;;;5046295;28;20036;-31
2022/05/31 00:53:25;;;;;;;3.50;3.10;;;;;;;;;;5041771;28;20041;-31
2022/05/31 00:55:57;;;;;;;3.88;3.47;;;;;;;;;;5045368;28;20037;-32
2022/05/31 00:58:23;;;;;;;3.90;3.60;;;;;;;;;;5035588;28;20040;-30
2022/05/31 01:00:52;;;;;;;3.90;3.60;;;;;;;;;;5048604;28;20155;-29
2022/05/31 01:03:20;;;;;;;4.63;3.40;;;;;;;;;;5053751;28;20033;-30
2022/05/31 01:05:46;;;;;;;4.72;3.70;;;;;;;;;;5053817;28;20528;-29
2022/05/31 01:08:12;;;;;;;4.97;3.92;;;;;;;;;;5053710;28;20112;-29
2022/05/31 01:10:40;;;;;;;3.83;3.20;;;;;;;;;;5053487;28;20486;-29
2022/05/31 01:13:07;;;;;;;3.58;3.25;;;;;;;;;;5053102;28;20049;-29
2022/05/31 01:15:33;;;;;;;3.88;3.47;;;;;;;;;;5053335;28;20041;-29
2022/05/31 01:17:59;;;;;;;4.05;3.65;;;;;;;;;;5053352;28;20047;-30
2022/05/31 01:20:26;;;;;;;3.95;3.55;;;;;;;;;;5053384;28;20032;-29
2022/05/31 01:22:56;;;;;;;5.18;3.63;;;;;;;;;;5053103;28;20040;-29
2022/05/31 01:25:23;;;;;;;3.70;3.35;;;;;;;;;;5052852;28;20040;-29
2022/05/31 01:27:55;;;;;;;5.88;4.20;;;;;;;;;;5053165;28;20135;-29
2022/05/31 01:30:21;;;;;;;3.88;3.58;;;;;;;;;;5052786;28;20041;-29
2022/05/31 01:33:04;;;;;;;4.72;3.67;;;;;;;;;;5018414;28;20045;-29
2022/05/31 01:35:31;;;;;;;4.32;3.65;;;;;;;;;;5052639;28;20041;-29
2022/05/31 01:38:04;;;;;;;3.67;3.38;;;;;;;;;;5053020;28;20490;-29
2022/05/31 01:40:35;;;;;;;4.25;3.65;;;;;;;;;;5052821;28;20080;-29
2022/05/31 01:43:01;;;;;;;3.65;3.35;;;;;;;;;;5053033;28;20036;-30
2022/05/31 01:45:31;;;;;;;3.88;3.58;;;;;;;;;;5052942;28;20517;-29
2022/05/31 01:47:59;;;;;;;4.53;3.40;;;;;;;;;;5052779;28;20262;-30
2022/05/31 01:50:25;;;;;;;4.65;3.55;;;;;;;;;;5052633;28;20395;-29
2022/05/31 01:52:51;;;;;;;3.80;3.50;;;;;;;;;;5052763;28;20390;-29
2022/05/31 01:55:18;;;;;;;5.05;3.63;;;;;;;;;;5052265;28;20037;-29
2022/05/31 01:57:47;;;;;;;3.70;3.40;;;;;;;;;;5052692;28;20037;-29
2022/05/31 02:00:14;;;;;;;4.95;3.80;;;;;;;;;;5052345;28;20454;-30
2022/05/31 02:02:40;;;;;;;3.53;3.22;;;;;;;;;;5052372;28;20129;-29
2022/05/31 02:05:06;;;;;;;4.03;3.63;;;;;;;;;;5052482;28;20409;-30
2022/05/31 02:07:33;;;;;;;4.80;3.35;;;;;;;;;;5052395;28;20701;-29
2022/05/31 02:09:59;;;;;;;3.78;3.47;;;;;;;;;;5052091;28;20045;-29
2022/05/31 02:12:27;;;;;;;4.68;4.10;;;;;;;;;;5052396;28;20040;-30
2022/05/31 02:14:53;;;;;;;4.20;3.80;;;;;;;;;;5052322;28;20095;-30
2022/05/31 02:17:19;;;;;;;5.53;3.95;;;;;;;;;;5052314;28;20041;-30
2022/05/31 02:19:45;;;;;;;6.80;3.78;;;;;;;;;;5052084;28;20076;-29
2022/05/31 02:22:13;;;;;;;3.47;3.17;;;;;;;;;;5051945;28;20068;-29
2022/05/31 02:24:40;;;;;;;4.63;3.92;;;;;;;;;;5052039;28;20060;-29
2022/05/31 02:27:07;;;;;;;4.82;3.95;;;;;;;;;;5051854;28;20091;-30
2022/05/31 02:29:34;;;;;;;5.47;4.00;;;;;;;;;;5052065;28;20435;-31
2022/05/31 02:32:01;;;;;;;3.55;3.05;;;;;;;;;;5051929;28;20119;-29
2022/05/31 02:34:29;;;;;;;4.10;3.45;;;;;;;;;;5051609;28;20490;-30
2022/05/31 02:36:56;;;;;;;3.72;3.38;;;;;;;;;;5052265;28;20384;-30
2022/05/31 02:39:22;;;;;;;7.40;3.72;;;;;;;;;;5052200;28;20044;-30
2022/05/31 02:41:48;;;;;;;4.15;3.13;;;;;;;;;;5052476;28;20045;-30
2022/05/31 02:44:15;;;;;;;4.32;3.90;;;;;;;;;;5052155;28;20051;-29
2022/05/31 02:46:41;;;;;;;4.40;3.90;;;;;;;;;;5050399;28;20037;-29
2022/05/31 02:49:08;;;;;;;4.00;3.60;;;;;;;;;;5040329;28;20041;-29
2022/05/31 02:51:35;;;;;;;5.38;3.60;;;;;;;;;;5051383;28;20037;-29
2022/05/31 02:54:01;;;;;;;3.90;3.60;;;;;;;;;;5045197;28;20091;-30
2022/05/31 02:56:27;;;;;;;5.47;4.10;;;;;;;;;;5033436;28;20064;-29
2022/05/31 02:58:53;;;;;;;4.60;4.10;;;;;;;;;;5045004;28;20518;-29
2022/05/31 03:01:19;;;;;;;4.97;4.30;;;;;;;;;;5049261;28;20047;-29
2022/05/31 03:03:45;;;;;;;5.35;4.85;;;;;;;;;;5039322;28;20076;-30
2022/05/31 03:06:11;;;;;;;4.90;4.50;;;;;;;;;;5034653;28;20037;-30
2022/05/31 03:08:38;;;;;;;5.65;4.40;;;;;;;;;;5036573;28;20041;-28
2022/05/31 03:11:05;;;;;;;4.82;4.20;;;;;;;;;;5050974;28;20040;-29
2022/05/31 03:13:31;;;;;;;5.90;4.82;;;;;;;;;;5033612;28;20069;-28
2022/05/31 03:15:58;;;;;;;4.90;4.40;;;;;;;;;;5045193;28;20037;-29
2022/05/31 03:18:27;;;;;;;6.97;4.68;;;;;;;;;;5032543;28;20037;-29
2022/05/31 03:20:54;;;;;;;4.82;4.43;;;;;;;;;;5049371;28;20116;-29
2022/05/31 03:23:31;;;;;;;6.00;5.15;;;;;;;;;;5033244;28;20045;-28
2022/05/31 03:25:59;;;;;;;4.75;4.35;;;;;;;;;;5044175;28;20041;-29
2022/05/31 03:28:26;;;;;;;5.47;4.97;;;;;;;;;;5047487;28;20029;-29
2022/05/31 03:30:52;;;;;;;5.28;4.78;;;;;;;;;;5041763;28;20051;-29
2022/05/31 03:33:18;;;;;;;8.18;5.18;;;;;;;;;;5025430;28;20156;-29
2022/05/31 03:35:44;;;;;;;6.35;5.68;;;;;;;;;;5043863;28;20127;-30
2022/05/31 03:38:11;;;;;;;6.50;5.60;;;;;;;;;;5037343;28;20439;-28
2022/05/31 03:43:21;;;;;;;6.13;5.43;;;;;;;;;;5041031;28;20423;-30
2022/05/31 03:45:47;;;;;;;7.68;5.38;;;;;;;;;;5051245;28;20139;-29
2022/05/31 03:48:14;;;;;;;6.72;5.20;;;;;;;;;;5046600;28;20395;-29
2022/05/31 03:50:40;;;;;;;5.57;4.90;;;;;;;;;;5047400;28;20040;-29
2022/05/31 03:53:07;;;;;;;6.18;5.57;;;;;;;;;;5049782;28;20052;-29
2022/05/31 03:55:36;;;;;;;6.13;5.53;;;;;;;;;;5042625;28;20038;-28
2022/05/31 03:58:03;;;;;;;5.95;5.43;;;;;;;;;;5053875;28;20037;-29
2022/05/31 04:00:29;;;;;;;7.63;5.78;;;;;;;;;;5054010;28;20080;-30
2022/05/31 04:02:55;;;;;;;5.65;5.05;;;;;;;;;;5054777;28;20072;-28
2022/05/31 04:05:21;;;;;;;6.40;5.72;;;;;;;;;;5045034;28;20426;-30
2022/05/31 04:07:50;;;;;;;6.38;4.80;;;;;;;;;;5035801;28;20041;-29
2022/05/31 04:10:16;;;;;;;7.90;6.45;;;;;;;;;;5054220;28;20139;-30
2022/05/31 04:12:42;;;;;;;5.70;5.20;;;;;;;;;;5054575;28;20041;-29
2022/05/31 04:15:09;;;;;;;5.60;5.10;;;;;;;;;;5054591;28;20486;-29
2022/05/31 04:17:35;;;;;;;5.80;5.20;;;;;;;;;;5054357;28;20544;-29
2022/05/31 04:20:01;;;;;;;6.35;5.72;;;;;;;;;;5054283;28;20090;-28
2022/05/31 04:22:27;;;;;;;6.78;5.55;;;;;;;;;;5054361;28;20052;-28
2022/05/31 04:24:57;;;;;;;7.93;5.88;;;;;;;;;;5038046;28;20037;-29
2022/05/31 04:27:23;;;;;;;7.07;6.40;;;;;;;;;;5034746;28;20170;-29
2022/05/31 04:29:49;;;;;;;6.50;5.47;;;;;;;;;;5040330;28;20063;-30
2022/05/31 04:32:16;;;;;;;7.32;6.30;;;;;;;;;;5035768;28;20127;-29
2022/05/31 04:34:43;;;;;;;6.57;5.97;;;;;;;;;;5053646;28;20051;-29
2022/05/31 04:37:09;;;;;;;6.28;5.68;;;;;;;;;;5053876;28;20044;-29
2022/05/31 04:39:35;;;;;;;6.60;6.00;;;;;;;;;;5050389;28;20037;-31
2022/05/31 04:42:01;;;;;;;6.03;5.53;;;;;;;;;;5043487;28;20388;-28
2022/05/31 04:44:27;;;;;;;6.57;5.88;;;;;;;;;;5054025;28;20470;-29
2022/05/31 04:46:54;;;;;;;6.53;5.80;;;;;;;;;;5053941;28;20495;-29
2022/05/31 04:49:20;;;;;;;6.57;5.97;;;;;;;;;;5048606;28;20422;-29
2022/05/31 04:51:46;;;;;;;6.15;5.55;;;;;;;;;;5053457;28;20133;-29
2022/05/31 04:54:12;;;;;;;6.30;5.70;;;;;;;;;;5047092;28;20134;-32
2022/05/31 04:56:38;;;;;;;6.18;5.57;;;;;;;;;;5054234;28;20072;-30
2022/05/31 04:59:04;;;;;;;5.93;5.30;;;;;;;;;;5049391;28;20399;-29
2022/05/31 05:01:31;;;;;;;7.95;5.93;;;;;;;;;;5049861;28;20060;-29
2022/05/31 05:03:57;;;;;;;6.95;6.28;;;;;;;;;;5040099;28;20038;-29
2022/05/31 05:06:23;;;;;;;5.90;5.20;;;;;;;;;;5038602;28;20086;-30
2022/05/31 05:08:49;;;;;;;6.35;5.75;;;;;;;;;;5053227;28;20041;-29
2022/05/31 05:11:17;;;;;;;7.63;5.95;;;;;;;;;;5047270;28;20083;-33
2022/05/31 05:13:44;;;;;;;6.55;5.63;;;;;;;;;;5043765;28;20034;-30
2022/05/31 05:16:12;;;;;;;5.78;5.28;;;;;;;;;;5040553;28;20487;-30
2022/05/31 05:18:38;;;;;;;6.20;5.60;;;;;;;;;;5038070;28;20123;-30
2022/05/31 05:21:06;;;;;;;5.78;5.28;;;;;;;;;;5044845;28;20124;-30
2022/05/31 05:23:32;;;;;;;6.35;5.15;;;;;;;;;;5038352;28;20029;-31
2022/05/31 05:25:59;;;;;;;5.78;5.28;;;;;;;;;;5053205;28;20120;-30
2022/05/31 05:31:19;;;;;;;6.45;5.88;;;;;;;;;;5037388;28;20052;-29
2022/05/31 05:33:46;;;;;;;7.15;5.20;;;;;;;;;;5044422;28;20041;-28
2022/05/31 05:36:12;;;;;;;6.10;5.55;;;;;;;;;;5038935;28;20052;-28
2022/05/31 05:38:39;;;;;;;5.75;5.25;;;;;;;;;;5042942;28;20045;-29
2022/05/31 05:41:05;;;;;;;5.55;5.05;;;;;;;;;;5048562;28;20398;-28
2022/05/31 05:43:31;;;;;;;6.10;5.50;;;;;;;;;;5052599;28;20033;-28
2022/05/31 05:45:57;;;;;;;7.70;6.05;;;;;;;;;;5052505;28;20037;-28
2022/05/31 05:48:23;;;;;;;7.25;5.75;;;;;;;;;;5033713;28;20643;-30
2022/05/31 05:50:49;;;;;;;7.15;5.97;;;;;;;;;;5044467;28;20033;-29
2022/05/31 05:53:15;;;;;;;5.72;5.13;;;;;;;;;;5052445;28;20111;-29
2022/05/31 05:55:41;;;;;;;6.55;5.95;;;;;;;;;;5044241;28;20060;-29
2022/05/31 05:58:08;;;;;;;6.78;6.18;;;;;;;;;;5046442;28;20095;-29
2022/05/31 06:00:37;;;;;;;6.35;5.75;;;;;;;;;;5044284;28;20124;-28
2022/05/31 06:03:06;;;;;;;6.50;5.80;;;;;;;;;;5048231;28;20387;-28
2022/05/31 06:05:32;;;;;;;7.13;6.43;;;;;;;;;;5032454;28;20077;-29
2022/05/31 06:08:02;;;;;;;7.00;6.30;;;;;;;;;;5036468;28;20099;-31
2022/05/31 06:10:36;;;;;;;6.60;5.88;;;;;;;;;;5022211;28;20321;-29
2022/05/31 06:13:05;;;;;;;7.75;6.45;;;;;;;;;;5034704;28;20041;-29
2022/05/31 06:15:34;;;;;;;8.13;5.95;;;;;;;;;;5040553;28;20087;-29
2022/05/31 06:18:01;;;;;;;6.75;5.22;;;;;;;;;;5033574;28;20041;-29
2022/05/31 06:20:29;;;;;;;7.45;5.20;;;;;;;;;;5047974;28;20044;-28
2022/05/31 06:22:56;;;;;;;11.20;6.00;;;;;;;;;;5036809;28;20395;-30
2022/05/31 06:25:22;;;;;;;6.70;6.00;;;;;;;;;;5042833;28;20044;-29
2022/05/31 06:27:48;;;;;;;7.13;5.72;;;;;;;;;;5052114;28;20044;-29
2022/05/31 06:30:21;;;;;;;7.15;5.95;;;;;;;;;;5090723;27;20423;-29
2022/05/31 06:32:48;;;;;;;6.80;5.30;;;;;;;;;;5087463;28;20453;-29
2022/05/31 06:35:14;;;;;;;5.95;5.28;;;;;;;;;;5078221;28;20123;-28
2022/05/31 06:37:40;;;;;;;6.35;5.47;;;;;;;;;;5096849;28;20028;-30
2022/05/31 06:40:07;;;;;;;6.93;5.53;;;;;;;;;;5088678;28;20051;-30
2022/05/31 06:42:33;;;;;;;7.13;5.25;;;;;;;;;;5097127;28;20044;-29
2022/05/31 06:44:59;;;;;;;6.35;5.28;;;;;;;;;;5088717;28;20040;-29
2022/05/31 06:47:26;;;;;;;5.93;4.55;;;;;;;;;;5088496;28;20040;-29
2022/05/31 06:49:52;;;;;;;5.60;4.68;;;;;;;;;;5102034;28;20531;-28
2022/05/31 06:57:48;;;;;;;4.45;4.05;;;;;;;;;;5088633;28;20444;-31
2022/05/31 07:00:17;;;;;;;6.35;4.32;;;;;;;;;;5079482;28;20037;-30
2022/05/31 07:02:43;;;;;;;4.72;3.80;;;;;;;;;;5069919;28;20040;-30
2022/05/31 07:05:10;;;;;;;6.80;4.18;;;;;;;;;;5070732;28;20054;-30
2022/05/31 07:07:37;;;;;;;4.72;3.60;;;;;;;;;;5080812;28;20479;-30
2022/05/31 07:10:06;;;;;;;4.35;3.95;;;;;;;;;;5079690;28;20079;-30
2022/05/31 07:12:33;;;;;;;6.07;3.72;;;;;;;;;;5087889;28;20032;-30
2022/05/31 07:15:00;;;;;;;4.43;4.03;;;;;;;;;;5073717;28;20041;-31
2022/05/31 07:17:26;;;;;;;5.60;3.72;;;;;;;;;;5087913;28;20083;-31
2022/05/31 07:19:52;;;;;;;4.15;3.40;;;;;;;;;;5074349;28;20044;-30
2022/05/31 07:22:18;;;;;;;3.50;3.20;;;;;;;;;;5073107;28;20044;-31
2022/05/31 07:24:44;;;;;;;6.65;4.43;;;;;;;;;;5087961;28;20040;-30
2022/05/31 07:27:11;;;;;;;4.70;3.92;;;;;;;;;;5084018;28;20040;-30
2022/05/31 07:29:37;;;;;;;4.80;3.58;;;;;;;;;;5076967;28;20059;-31
2022/05/31 07:32:03;;;;;;;5.03;3.50;;;;;;;;;;5077894;28;20032;-30
2022/05/31 07:34:29;;;;;;;6.38;3.78;;;;;;;;;;5074161;28;20038;-29
2022/05/31 07:36:56;;;;;;;3.55;3.10;;;;;;;;;;5079802;28;20040;-31
2022/05/31 07:39:24;;;;;;;4.38;3.45;;;;;;;;;;5090912;28;20102;-30
2022/05/31 07:42:02;;;;;;;6.03;3.67;;;;;;;;;;5093531;28;20040;-30
2022/05/31 07:44:40;;;;;;;7.55;3.50;;;;;;;;;;5093284;28;20456;-32
2022/05/31 07:47:07;;;;;;;5.25;3.70;;;;;;;;;;5075117;28;20397;-31
2022/05/31 07:49:35;;;;;;;10.00;4.18;;;;;;;;;;5038847;28;20041;-30
2022/05/31 07:52:07;;;;;;;5.35;3.60;;;;;;;;;;5084931;28;20032;-31
2022/05/31 07:54:33;;;;;;;4.38;3.42;;;;;;;;;;5085774;28;20059;-30
2022/05/31 07:56:59;;;;;;;5.05;4.20;;;;;;;;;;5074241;28;20033;-30
2022/05/31 07:59:27;;;;;;;4.30;3.83;;;;;;;;;;5072989;28;20402;-30
2022/05/31 08:01:53;;;;;;;4.53;4.05;;;;;;;;;;5054201;28;20540;-33
2022/05/31 08:04:19;;;;;;;6.68;4.72;;;;;;;;;;5091341;28;20036;-30
2022/05/31 08:06:45;;;;;;;4.60;4.05;;;;;;;;;;5092837;28;20044;-30
2022/05/31 08:09:12;;;;;;;4.97;3.85;;;;;;;;;;5091604;28;20100;-30
2022/05/31 08:11:38;;;;;;;4.35;3.70;;;;;;;;;;5085531;28;20044;-29
2022/05/31 08:14:04;;;;;;;5.00;3.97;;;;;;;;;;5053536;28;20037;-29
2022/05/31 08:16:31;;;;;;;5.28;3.47;;;;;;;;;;5067382;28;20044;-29
2022/05/31 08:18:58;;;;;;;4.50;4.10;;;;;;;;;;5094407;28;20040;-30
2022/05/31 08:24:28;;;;;;;4.47;4.07;;;;;;;;;;5059331;28;20127;-31
2022/05/31 08:26:55;;;;;;;5.05;4.18;;;;;;;;;;5092006;28;20052;-30
2022/05/31 08:29:24;;;;;;;5.30;4.60;;;;;;;;;;5085283;28;20045;-30
2022/05/31 08:31:50;;;;;;;5.97;4.88;;;;;;;;;;5072063;28;20029;-31
2022/05/31 08:34:16;;;;;;;5.72;5.13;;;;;;;;;;5073565;28;20124;-31
2022/05/31 08:36:43;;;;;;;6.70;5.53;;;;;;;;;;5064373;28;20430;-30
2022/05/31 08:39:10;;;;;;;7.15;5.10;;;;;;;;;;5070995;28;20477;-30
2022/05/31 08:41:46;;;;;;;7.97;4.80;;;;;;;;;;5078805;28;20036;-30
2022/05/31 08:44:31;;;;;;;4.72;4.28;;;;;;;;;;5077883;28;20498;-29
2022/05/31 08:47:10;;;;;;;8.52;4.90;;;;;;;;;;5082574;28;20048;-29
2022/05/31 08:52:59;;;;;;;7.25;6.55;;;;;;;;;;5091921;28;20040;-30
2022/05/31 08:58:32;;;;;;;10.55;6.78;;;;;;;;;;5083414;28;20044;-30
2022/05/31 09:00:59;;;;;;;5.93;5.28;;;;;;;;;;5072352;28;20040;-30
2022/05/31 09:03:25;;;;;;;7.90;5.72;;;;;;;;;;5084527;28;20462;-30
2022/05/31 09:06:01;;;;;;;7.30;6.18;;;;;;;;;;5072879;28;20498;-29
2022/05/31 09:08:30;;;;;;;6.97;5.68;;;;;;;;;;5091286;28;20040;-30
2022/05/31 09:11:01;;;;;;;7.22;6.00;;;;;;;;;;5083118;28;20085;-31
2022/05/31 09:13:27;;;;;;;6.78;5.65;;;;;;;;;;5072585;28;20032;-30
2022/05/31 09:15:56;;;;;;;7.75;5.97;;;;;;;;;;5078920;28;20042;-31
2022/05/31 09:18:38;;;;;;;6.07;5.45;;;;;;;;;;5092737;28;20067;-31
2022/05/31 09:21:08;;;;;;;5.28;4.82;;;;;;;;;;5087264;28;20033;-30
2022/05/31 09:23:39;;;;;;;5.93;4.60;;;;;;;;;;5064680;28;20053;-29
2022/05/31 09:26:08;;;;;;;7.10;4.75;;;;;;;;;;5053264;28;20487;-29
2022/05/31 09:28:34;;;;;;;6.75;4.63;;;;;;;;;;5052191;28;20041;-30
2022/05/31 09:31:02;;;;;;;6.15;4.50;;;;;;;;;;5077882;28;20032;-30
2022/05/31 09:33:32;;;;;;;6.53;4.55;;;;;;;;;;5071932;28;20032;-31
2022/05/31 09:36:02;;;;;;;6.85;3.70;;;;;;;;;;5056011;28;20124;-30
2022/05/31 09:38:28;;;;;;;5.95;3.97;;;;;;;;;;5054734;28;20041;-30
2022/05/31 09:41:06;;;;;;;5.55;3.13;;;;;;;;;;5086401;28;20044;-31
2022/05/31 09:43:32;;;;;;;4.50;3.65;;;;;;;;;;5063591;28;20441;-31
2022/05/31 09:46:22;;;;;;;7.22;4.03;;;;;;;;;;5052116;28;20056;-32
2022/05/31 09:48:49;;;;;;;4.97;3.55;;;;;;;;;;5080030;28;20052;-30
2022/05/31 09:51:34;;;;;;;4.38;3.97;;;;;;;;;;5081400;28;20040;-30
2022/05/31 09:59:30;;;;;;;5.40;3.50;;;;;;;;;;5091898;28;20040;-30
2022/05/31 10:02:03;;;;;;;5.50;3.75;;;;;;;;;;5087263;28;20044;-30
2022/05/31 10:04:30;;;;;;;5.25;3.33;;;;;;;;;;5074160;28;20058;-30
2022/05/31 10:07:01;;;;;;;4.03;3.60;;;;;;;;;;5079155;28;20486;-31
2022/05/31 10:09:38;;;;;;;5.18;3.42;;;;;;;;;;5054504;28;20402;-30
2022/05/31 10:12:05;;;;;;;5.50;3.95;;;;;;;;;;5069250;28;20047;-32
2022/05/31 10:14:33;;;;;;;4.63;3.55;;;;;;;;;;5083699;28;20048;-31
2022/05/31 10:17:14;;;;;;;5.35;3.55;;;;;;;;;;5062409;28;20041;-31
2022/05/31 10:19:40;;;;;;;3.15;2.55;;;;;;;;;;5057656;28;20041;-33
2022/05/31 10:22:17;;;;;;;4.97;2.83;;;;;;;;;;5076789;28;20032;-33
2022/05/31 10:24:43;;;;;;;4.35;2.92;;;;;;;;;;5066852;28;20040;-33
2022/05/31 10:27:22;;;;;;;3.92;3.40;;;;;;;;;;5062220;28;20102;-31
2022/05/31 10:29:51;;;;;;;3.30;3.00;;;;;;;;;;5068121;28;20441;-34
2022/05/31 10:32:24;;;;;;;3.95;3.53;;;;;;;;;;5061543;28;20127;-34
2022/05/31 10:34:50;;;;;;;4.55;3.70;;;;;;;;;;5076300;28;20067;-36
2022/05/31 10:37:32;;;;;;;7.53;4.10;;;;;;;;;;5069391;28;20037;-33
2022/05/31 10:40:04;;;;;;;3.90;3.47;;;;;;;;;;5064822;28;20348;-33
2022/05/31 10:42:32;;;;;;;4.15;3.85;;;;;;;;;;5079723;28;20048;-32
2022/05/31 10:45:02;;;;;;;5.22;4.43;;;;;;;;;;5058255;28;20491;-32
2022/05/31 10:47:29;;;;;;;4.03;3.63;;;;;;;;;;5071394;28;20099;-31
2022/05/31 10:49:55;;;;;;;4.90;4.40;;;;;;;;;;5061569;28;20045;-30
2022/05/31 10:52:24;;;;;;;4.82;4.28;;;;;;;;;;5068260;28;20411;-30
2022/05/31 10:55:04;;;;;;;6.07;3.92;;;;;;;;;;5065344;28;20097;-35
2022/05/31 10:57:50;;;;;;;5.90;4.13;;;;;;;;;;5069774;28;20051;-31
2022/05/31 11:00:19;;;;;;;5.50;4.30;;;;;;;;;;5058197;28;20048;-33
2022/05/31 11:02:51;;;;;;;4.97;4.57;;;;;;;;;;5062101;28;20035;-33
2022/05/31 11:05:21;;;;;;;4.75;4.20;;;;;;;;;;5065735;28;20071;-33
2022/05/31 11:14:00;;;;;;;4.90;3.13;;;;;;;;;;5072867;28;20405;-31
2022/05/31 11:16:29;;;;;;;4.57;3.30;;;;;;;;;;5073590;28;20475;-32
2022/05/31 11:18:58;;;;;;;4.63;3.65;;;;;;;;;;5077016;28;20036;-31
2022/05/31 11:21:42;;;;;;;4.95;3.40;;;;;;;;;;5075182;28;20041;-33
2022/05/31 11:24:11;;;;;;;6.20;3.90;;;;;;;;;;5065765;28;20037;-33
2022/05/31 11:26:44;;;;;;;7.22;4.07;;;;;;;;;;5075460;28;20035;-32
2022/05/31 11:29:10;;;;;;;7.15;4.20;;;;;;;;;;5070763;28;20043;-32
2022/05/31 11:31:42;;;;;;;5.88;4.32;;;;;;;;;;5073040;28;20107;-31
2022/05/31 11:34:08;;;;;;;5.97;4.97;;;;;;;;;;5072249;28;20036;-34
2022/05/31 11:36:40;;;;;;;5.55;4.78;;;;;;;;;;5081715;28;20040;-34
2022/05/31 11:39:25;;;;;;;6.07;4.10;;;;;;;;;;5079365;28;20041;-36
2022/05/31 11:41:54;;;;;;;4.88;4.22;;;;;;;;;;5067364;28;20071;-33
2022/05/31 11:44:40;;;;;;;5.00;4.13;;;;;;;;;;5072032;28;20036;-31
2022/05/31 11:47:25;;;;;;;4.82;3.97;;;;;;;;;;5088036;28;20046;-31
2022/05/31 11:50:14;;;;;;;6.45;5.20;;;;;;;;;;5085440;28;20062;-32
2022/05/31 11:52:43;;;;;;;6.57;5.35;;;;;;;;;;5071248;28;20045;-33
2022/05/31 11:55:31;;;;;;;5.90;4.63;;;;;;;;;;5072311;28;20036;-33
2022/05/31 11:58:18;;;;;;;6.57;4.78;;;;;;;;;;5068100;28;20388;-33
2022/05/31 12:00:48;;;;;;;7.72;5.32;;;;;;;;;;5072187;28;20040;-33
2022/05/31 12:03:17;;;;;;;9.98;5.10;;;;;;;;;;5072186;28;20044;-32
2022/05/31 12:05:46;;;;;;;5.82;4.47;;;;;;;;;;5065579;28;20120;-32
2022/05/31 12:08:34;;;;;;;7.82;5.88;;;;;;;;;;5068823;28;20552;-35
2022/05/31 12:11:16;;;;;;;9.57;5.53;;;;;;;;;;5072486;28;20064;-32
2022/05/31 12:13:44;;;;;;;7.00;5.22;;;;;;;;;;5071380;28;20067;-31
2022/05/31 12:16:11;;;;;;;5.43;4.93;;;;;;;;;;5068767;28;20109;-32
2022/05/31 12:18:43;;;;;;;5.85;5.35;;;;;;;;;;5077355;28;20044;-32
2022/05/31 12:21:13;;;;;;;11.65;5.60;;;;;;;;;;5080677;28;20128;-33
2022/05/31 12:23:43;;;;;;;6.45;5.05;;;;;;;;;;5066871;28;20079;-33
2022/05/31 12:26:27;;;;;;;5.53;4.88;;;;;;;;;;5080540;28;20097;-30
2022/05/31 12:29:14;;;;;;;7.00;4.78;;;;;;;;;;5081997;28;20544;-34
2022/05/31 12:31:41;;;;;;;6.25;5.65;;;;;;;;;;5069616;28;20033;-32
2022/05/31 12:34:13;;;;;;;7.20;4.80;;;;;;;;;;5079186;28;20126;-32
2022/05/31 12:36:58;;;;;;;6.20;5.60;;;;;;;;;;5073599;28;20040;-32
2022/05/31 12:39:28;;;;;;;6.82;5.13;;;;;;;;;;5061807;28;20048;-33
2022/05/31 12:41:54;;;;;;;7.07;5.68;;;;;;;;;;5071843;28;20048;-32
2022/05/31 12:44:26;;;;;;;5.78;5.20;;;;;;;;;;5071991;28;20079;-32
2022/05/31 12:46:53;;;;;;;6.05;5.43;;;;;;;;;;5079264;28;20486;-33
2022/05/31 12:49:27;;;;;;;7.68;6.13;;;;;;;;;;5080145;28;20040;-30
2022/05/31 12:54:58;;;;;;;8.75;5.72;;;;;;;;;;5081232;28;20090;-32
2022/05/31 13:00:41;;;;;;;7.28;5.45;;;;;;;;;;5071082;28;20563;-32
2022/05/31 13:03:26;;;;;;;7.45;5.30;;;;;;;;;;5081349;28;20044;-31
2022/05/31 13:06:00;;;;;;;5.32;4.75;;;;;;;;;;5077350;28;20103;-32
2022/05/31 13:08:44;;;;;;;5.70;5.20;;;;;;;;;;5068353;28;20087;-32
2022/05/31 13:19:38;;;;;;;5.65;5.10;;;;;;;;;;5073830;28;20040;-32
2022/05/31 13:22:10;;;;;;;5.65;5.07;;;;;;;;;;5076358;28;20123;-34
2022/05/31 13:24:42;;;;;;;7.80;5.90;;;;;;;;;;5069840;28;20460;-32
2022/05/31 13:27:09;;;;;;;6.27;5.10;;;;;;;;;;5070012;28;20122;-32
2022/05/31 13:29:35;;;;;;;5.50;5.00;;;;;;;;;;5069825;28;20305;-34
2022/05/31 13:32:02;;;;;;;6.72;4.65;;;;;;;;;;5076015;28;20032;-31
2022/05/31 13:34:30;;;;;;;4.82;4.40;;;;;;;;;;5068121;28;20040;-31
2022/05/31 13:36:57;;;;;;;6.78;5.10;;;;;;;;;;5078404;28;20029;-32
2022/05/31 13:39:23;;;;;;;5.60;5.13;;;;;;;;;;5076735;28;20502;-32
2022/05/31 13:41:57;;;;;;;7.45;5.85;;;;;;;;;;5075662;28;20430;-33
2022/05/31 13:44:26;;;;;;;6.90;6.22;;;;;;;;;;5067575;28;20124;-33
2022/05/31 13:46:53;;;;;;;6.72;6.13;;;;;;;;;;5082801;28;20417;-31
2022/05/31 13:49:31;;;;;;;5.18;4.68;;;;;;;;;;5085015;28;20040;-34
2022/05/31 13:51:59;;;;;;;5.28;4.68;;;;;;;;;;5081249;28;20043;-31
2022/05/31 13:54:28;;;;;;;5.35;4.85;;;;;;;;;;5075063;28;20081;-31
2022/05/31 13:56:57;;;;;;;7.22;4.68;;;;;;;;;;5072810;28;20080;-33
2022/05/31 13:59:34;;;;;;;5.70;4.80;;;;;;;;;;5080879;28;20127;-33
2022/05/31 14:02:01;;;;;;;5.90;4.95;;;;;;;;;;5075723;28;20529;-32
2022/05/31 14:04:35;;;;;;;7.35;4.95;;;;;;;;;;5071789;28;20493;-32
2022/05/31 14:07:05;;;;;;;6.93;4.43;;;;;;;;;;5075963;28;20033;-31
2022/05/31 14:09:37;;;;;;;4.63;4.20;;;;;;;;;;5061182;28;20037;-33
2022/05/31 14:12:05;;;;;;;6.45;4.60;;;;;;;;;;5068620;28;20041;-34
2022/05/31 14:14:31;;;;;;;5.57;4.05;;;;;;;;;;5069190;28;20028;-32
2022/05/31 14:16:58;;;;;;;5.72;3.92;;;;;;;;;;5058974;28;20064;-34
2022/05/31 14:19:26;;;;;;;7.95;4.13;;;;;;;;;;5068915;28;20047;-33
2022/05/31 14:21:54;;;;;;;6.20;4.60;;;;;;;;;;5074095;28;20120;-33
2022/05/31 14:24:21;;;;;;;5.13;4.63;;;;;;;;;;5074627;28;20440;-33
2022/05/31 14:26:48;;;;;;;5.07;4.40;;;;;;;;;;5076213;28;20102;-33
2022/05/31 14:29:14;;;;;;;5.35;4.60;;;;;;;;;;5074410;28;20138;-31
2022/05/31 14:31:42;;;;;;;7.95;4.30;;;;;;;;;;5079551;28;20036;-33
2022/05/31 14:34:15;;;;;;;7.18;4.90;;;;;;;;;;5073433;28;20043;-33
2022/05/31 14:36:41;;;;;;;4.95;4.32;;;;;;;;;;5074862;28;20507;-34
2022/05/31 14:39:14;;;;;;;5.25;4.03;;;;;;;;;;5074930;28;20042;-33
2022/05/31 14:41:41;;;;;;;6.78;4.10;;;;;;;;;;5069307;28;20041;-32
2022/05/31 14:44:24;;;;;;;5.13;4.32;;;;;;;;;;5073239;28;20036;-32
2022/05/31 14:47:04;;;;;;;5.28;4.10;;;;;;;;;;5078105;28;20067;-33
2022/05/31 14:49:30;;;;;;;4.63;4.22;;;;;;;;;;5069833;28;20094;-32
2022/05/31 14:51:56;;;;;;;4.55;4.15;;;;;;;;;;5068213;28;20068;-32
2022/05/31 14:54:37;;;;;;;5.30;4.65;;;;;;;;;;5083817;28;20077;-34
2022/05/31 14:57:07;;;;;;;4.50;4.13;;;;;;;;;;5084397;28;20032;-34
2022/05/31 14:59:33;;;;;;;5.82;4.22;;;;;;;;;;5075550;28;20037;-32
2022/05/31 15:02:00;;;;;;;6.13;4.30;;;;;;;;;;5073518;28;20040;-32
2022/05/31 15:04:28;;;;;;;5.45;4.05;;;;;;;;;;5072997;28;20059;-33
2022/05/31 15:07:17;;;;;;;4.63;4.10;;;;;;;;;;5086006;28;20089;-33
2022/05/31 15:09:44;;;;;;;5.38;4.50;;;;;;;;;;5077452;28;20041;-33
2022/05/31 15:20:27;;;;;;;4.88;4.53;;;;;;;;;;5080977;28;20136;-32
2022/05/31 15:22:56;;;;;;;5.63;5.10;;;;;;;;;;5076265;28;20052;-32
2022/05/31 15:25:24;;;;;;;5.13;4.63;;;;;;;;;;5065512;28;20039;-33
2022/05/31 15:27:52;;;;;;;5.13;4.53;;;;;;;;;;5073147;28;20502;-32
2022/05/31 15:30:19;;;;;;;5.20;4.72;;;;;;;;;;5072815;28;20045;-33
2022/05/31 15:32:45;;;;;;;5.57;4.40;;;;;;;;;;5082636;28;20043;-34
2022/05/31 15:35:22;;;;;;;4.65;4.25;;;;;;;;;;5067297;28;20036;-35
2022/05/31 15:37:50;;;;;;;6.15;4.38;;;;;;;;;;5070117;28;20048;-31
2022/05/31 15:40:18;;;;;;;5.95;4.45;;;;;;;;;;5061647;28;20041;-31
2022/05/31 15:42:44;;;;;;;5.47;4.68;;;;;;;;;;5066826;28;20073;-33
2022/05/31 15:45:12;;;;;;;5.15;4.25;;;;;;;;;;5068841;28;20040;-32
2022/05/31 15:47:38;;;;;;;6.03;4.95;;;;;;;;;;5071166;28;20059;-33
2022/05/31 15:50:05;;;;;;;7.10;4.15;;;;;;;;;;5064740;28;20658;-32